createdAt,value
2019-06-15T00:00:49.580Z,18.27
2019-06-15T00:03:18.014Z,20.30
2019-06-15T00:05:46.466Z,18.63
2019-06-15T00:08:15.061Z,23.93
2019-06-15T00:10:43.502Z,23.60
2019-06-15T00:13:12.023Z,26.27
2019-06-15T00:15:40.493Z,30.33
2019-06-15T00:18:08.847Z,29.67
2019-06-15T00:20:37.299Z,26.83
2019-06-15T00:23:05.667Z,25.13
2019-06-15T00:25:34.113Z,25.30
2019-06-15T00:28:02.496Z,23.43
2019-06-15T00:30:30.961Z,19.20
2019-06-15T00:32:59.347Z,20.77
2019-06-15T00:35:27.791Z,23.27
2019-06-15T00:37:56.318Z,23.27
2019-06-15T00:40:24.771Z,29.13
2019-06-15T00:42:53.257Z,24.90
2019-06-15T00:45:21.614Z,28.23
2019-06-15T00:47:49.976Z,29.80
2019-06-15T00:50:18.440Z,23.53
2019-06-15T00:52:46.874Z,30.57
2019-06-15T00:55:15.308Z,31.97
2019-06-15T00:57:43.751Z,29.23
2019-06-15T01:00:12.475Z,31.87
2019-06-15T01:02:40.843Z,33.10
2019-06-15T01:05:09.299Z,29.77
2019-06-15T01:07:37.690Z,32.63
2019-06-15T01:10:06.421Z,30.77
2019-06-15T01:12:34.783Z,34.87
2019-06-15T01:15:03.316Z,35.97
2019-06-15T01:17:31.818Z,36.03
2019-06-15T01:20:00.270Z,37.63
2019-06-15T01:22:28.703Z,40.50
2019-06-15T01:25:05.242Z,38.03
2019-06-15T01:27:27.314Z,37.83
2019-06-15T01:29:55.704Z,31.43
2019-06-15T01:32:24.143Z,33.20
2019-06-15T01:34:52.582Z,39.70
2019-06-15T01:37:21.031Z,39.67
2019-06-15T01:39:49.479Z,39.27
2019-06-15T01:42:17.923Z,37.93
2019-06-15T01:44:46.378Z,39.07
2019-06-15T01:47:14.829Z,34.80
2019-06-15T01:49:43.194Z,39.87
2019-06-15T01:52:11.563Z,44.73
2019-06-15T01:54:40.003Z,44.63
2019-06-15T01:57:08.378Z,46.73
2019-06-15T01:59:36.920Z,45.90
2019-06-15T02:02:05.376Z,48.23
2019-06-15T02:04:33.805Z,49.77
2019-06-15T02:07:02.276Z,46.27
2019-06-15T02:09:30.727Z,44.03
2019-06-15T02:11:59.359Z,49.93
2019-06-15T02:14:28.066Z,47.57
2019-06-15T02:16:56.562Z,46.67
2019-06-15T02:19:24.930Z,44.73
2019-06-15T02:21:53.387Z,52.17
2019-06-15T02:24:21.907Z,48.50
2019-06-15T02:26:50.337Z,53.03
2019-06-15T02:29:18.795Z,49.30
2019-06-15T02:31:47.175Z,34.40
2019-06-15T02:34:15.556Z,45.73
2019-06-15T02:36:43.948Z,45.77
2019-06-15T02:39:12.388Z,47.43
2019-06-15T02:41:40.849Z,38.97
2019-06-15T02:44:09.305Z,49.20
2019-06-15T02:46:38.455Z,52.83
2019-06-15T02:49:06.967Z,51.60
2019-06-15T02:51:35.427Z,45.47
2019-06-15T02:54:03.976Z,45.10
2019-06-15T02:56:32.443Z,51.07
2019-06-15T02:59:00.919Z,50.30
2019-06-15T03:01:29.371Z,55.10
2019-06-15T03:03:57.818Z,51.57
2019-06-15T03:06:26.280Z,49.97
2019-06-15T03:08:55.039Z,50.80
2019-06-15T03:11:23.403Z,50.30
2019-06-15T03:13:52.470Z,48.40
2019-06-15T03:16:20.922Z,48.83
2019-06-15T03:18:49.312Z,50.13
2019-06-15T03:21:17.912Z,47.70
2019-06-15T03:23:46.283Z,53.20
2019-06-15T03:26:14.680Z,44.00
2019-06-15T03:28:43.175Z,51.10
2019-06-15T03:31:11.632Z,53.00
2019-06-15T03:33:40.094Z,51.40
2019-06-15T03:36:08.690Z,53.70
2019-06-15T03:38:37.135Z,53.03
2019-06-15T03:41:05.562Z,53.40
2019-06-15T03:43:34.037Z,55.33
2019-06-15T03:46:02.469Z,55.30
2019-06-15T03:48:30.947Z,54.80
2019-06-15T03:50:59.395Z,53.17
2019-06-15T03:53:27.775Z,54.57
2019-06-15T03:55:56.231Z,52.00
2019-06-15T03:58:24.683Z,56.90
2019-06-15T04:00:57.050Z,55.73
2019-06-15T04:03:25.512Z,51.63
2019-06-15T04:05:53.907Z,45.73
2019-06-15T04:08:22.370Z,53.43
2019-06-15T04:10:50.721Z,53.33
2019-06-15T04:13:19.168Z,47.57
2019-06-15T04:15:47.611Z,44.50
2019-06-15T04:18:16.084Z,47.57
2019-06-15T04:20:44.466Z,47.43
2019-06-15T04:23:12.907Z,50.73
2019-06-15T04:25:44.101Z,48.50
2019-06-15T04:28:11.551Z,40.03
2019-06-15T04:30:40.482Z,38.90
2019-06-15T04:33:08.904Z,46.50
2019-06-15T04:35:37.465Z,45.27
2019-06-15T04:38:05.999Z,44.63
2019-06-15T04:40:38.196Z,41.53
2019-06-15T04:43:06.374Z,44.63
2019-06-15T04:45:34.747Z,47.00
2019-06-15T04:48:03.177Z,47.63
2019-06-15T04:50:31.647Z,37.43
2019-06-15T04:53:00.231Z,44.13
2019-06-15T04:55:28.678Z,46.77
2019-06-15T04:57:57.095Z,45.63
2019-06-15T05:00:25.542Z,45.97
2019-06-15T05:02:53.892Z,44.50
2019-06-15T05:05:22.315Z,46.00
2019-06-15T05:07:50.679Z,41.67
2019-06-15T05:10:19.137Z,41.10
2019-06-15T05:12:47.520Z,35.70
2019-06-15T05:15:16.071Z,39.47
2019-06-15T05:17:46.307Z,41.10
2019-06-15T05:20:14.882Z,42.57
2019-06-15T05:22:43.247Z,35.70
2019-06-15T05:25:11.763Z,39.13
2019-06-15T05:27:40.134Z,35.30
2019-06-15T05:30:08.587Z,35.63
2019-06-15T05:32:36.955Z,32.57
2019-06-15T05:35:05.845Z,33.23
2019-06-15T05:37:34.304Z,33.87
2019-06-15T05:40:02.783Z,30.87
2019-06-15T05:42:31.246Z,28.10
2019-06-15T05:44:59.618Z,28.87
2019-06-15T05:47:28.058Z,27.00
2019-06-15T05:49:56.499Z,23.20
2019-06-15T05:52:25.025Z,24.17
2019-06-15T05:54:53.390Z,26.63
2019-06-15T05:57:22.131Z,26.87
2019-06-15T05:59:50.633Z,24.77
2019-06-15T06:02:21.704Z,28.03
2019-06-15T06:04:49.139Z,21.50
2019-06-15T06:07:17.640Z,22.23
2019-06-15T06:09:46.032Z,23.00
2019-06-15T06:12:14.577Z,24.00
2019-06-15T06:14:43.033Z,26.03
2019-06-15T06:17:11.488Z,24.07
2019-06-15T06:19:39.875Z,20.23
2019-06-15T06:22:08.652Z,18.73
2019-06-15T06:24:37.028Z,16.93
2019-06-15T06:27:05.566Z,17.77
2019-06-15T06:29:34.095Z,16.47
2019-06-15T06:32:02.479Z,16.43
2019-06-15T06:34:30.959Z,17.87
2019-06-15T06:36:59.427Z,16.67
2019-06-15T06:39:27.791Z,17.47
2019-06-15T06:41:56.271Z,16.47
2019-06-15T06:44:24.634Z,17.70
2019-06-15T06:46:53.183Z,20.23
2019-06-15T06:49:21.571Z,20.33
2019-06-15T06:51:49.963Z,20.43
2019-06-15T06:54:18.330Z,21.73
2019-06-15T06:56:46.820Z,22.67
2019-06-15T06:59:15.268Z,22.37
2019-06-15T07:01:43.790Z,26.77
2019-06-15T07:04:12.256Z,27.17
2019-06-15T07:06:40.712Z,30.30
2019-06-15T07:09:09.091Z,28.37
2019-06-15T07:11:37.514Z,31.37
2019-06-15T07:14:05.922Z,33.37
2019-06-15T07:16:34.416Z,35.43
2019-06-15T07:19:02.865Z,38.03
2019-06-15T07:21:31.228Z,39.53
2019-06-15T07:23:59.781Z,41.03
2019-06-15T07:26:28.250Z,44.67
2019-06-15T07:28:56.659Z,44.60
2019-06-15T07:31:25.054Z,47.27
2019-06-15T07:33:53.461Z,46.73
2019-06-15T07:36:22.014Z,43.67
2019-06-15T07:38:50.523Z,44.70
2019-06-15T07:41:19.034Z,48.57
2019-06-15T07:43:47.566Z,45.40
2019-06-15T07:46:16.109Z,47.27
2019-06-15T07:48:44.547Z,44.40
2019-06-15T07:51:13.005Z,42.27
2019-06-15T07:53:41.480Z,38.53
2019-06-15T07:56:09.935Z,39.43
2019-06-15T07:58:38.323Z,40.10
2019-06-15T08:01:06.773Z,40.20
2019-06-15T08:03:35.259Z,40.97
2019-06-15T08:06:03.751Z,43.77
2019-06-15T08:08:32.215Z,47.27
2019-06-15T08:11:00.800Z,46.77
2019-06-15T08:13:29.263Z,47.30
2019-06-15T08:15:57.715Z,48.13
2019-06-15T08:18:26.242Z,49.03
2019-06-15T08:20:54.691Z,50.53
2019-06-15T08:23:23.165Z,52.63
2019-06-15T08:25:51.565Z,55.37
2019-06-15T08:28:20.011Z,55.87
2019-06-15T08:30:48.461Z,53.17
2019-06-15T08:33:17.051Z,53.50
2019-06-15T08:35:45.536Z,51.07
2019-06-15T08:38:13.911Z,51.47
2019-06-15T08:40:42.753Z,47.10
2019-06-15T08:43:11.207Z,45.70
2019-06-15T08:45:39.704Z,43.67
2019-06-15T08:48:08.310Z,41.13
2019-06-15T08:50:36.788Z,38.30
2019-06-15T08:53:05.324Z,35.03
2019-06-15T08:55:33.730Z,31.10
2019-06-15T08:58:02.126Z,33.73
2019-06-15T09:00:30.647Z,37.60
2019-06-15T09:02:59.211Z,30.90
2019-06-15T09:05:27.708Z,34.23
2019-06-15T09:07:56.279Z,34.27
2019-06-15T09:10:31.459Z,34.67
2019-06-15T09:12:59.964Z,33.97
2019-06-15T09:15:56.865Z,32.67
2019-06-15T09:18:25.368Z,32.50
2019-06-15T09:20:58.149Z,32.50
2019-06-15T09:23:26.655Z,29.37
2019-06-15T09:25:55.134Z,29.27
2019-06-15T09:28:23.702Z,28.63
2019-06-15T09:30:52.187Z,25.63
2019-06-15T09:33:20.653Z,27.87
2019-06-15T09:35:50.300Z,27.97
2019-06-15T09:38:18.775Z,26.47
2019-06-15T09:40:47.379Z,26.90
2019-06-15T09:43:15.815Z,26.23
2019-06-15T09:45:44.747Z,23.33
2019-06-15T09:48:13.414Z,22.53
2019-06-15T09:50:41.944Z,21.37
2019-06-15T09:53:10.379Z,21.97
2019-06-15T09:55:38.792Z,21.57
2019-06-15T09:58:07.257Z,23.13
2019-06-15T10:00:39.573Z,22.30
2019-06-15T10:03:08.029Z,22.63
2019-06-15T10:05:36.546Z,26.60
2019-06-15T10:08:05.053Z,25.80
2019-06-15T10:10:33.601Z,28.70
2019-06-15T10:13:02.114Z,28.67
2019-06-15T10:15:30.637Z,28.90
2019-06-15T10:17:59.132Z,26.97
2019-06-15T10:20:27.666Z,25.50
2019-06-15T10:22:56.175Z,24.80
2019-06-15T10:25:24.636Z,21.77
2019-06-15T10:27:53.235Z,20.77
2019-06-15T10:30:21.732Z,20.53
2019-06-15T10:32:51.472Z,17.47
2019-06-15T10:35:20.164Z,18.57
2019-06-15T10:37:48.867Z,15.50
2019-06-15T10:40:17.412Z,14.40
2019-06-15T10:42:45.919Z,13.20
2019-06-15T10:45:15.419Z,11.83
2019-06-15T10:47:43.939Z,10.60
2019-06-15T10:50:12.425Z,11.93
2019-06-15T10:52:41.004Z,12.30
2019-06-15T10:55:09.794Z,14.17
2019-06-15T10:57:39.440Z,14.50
2019-06-15T11:00:08.051Z,13.53
2019-06-15T11:02:36.778Z,14.37
2019-06-15T11:05:05.593Z,17.90
2019-06-15T11:07:34.500Z,16.00
2019-06-15T11:10:03.091Z,18.13
2019-06-15T11:12:45.411Z,23.07
2019-06-15T11:15:01.838Z,25.13
2019-06-15T11:17:32.262Z,23.70
2019-06-15T11:20:00.660Z,24.20
2019-06-15T11:22:29.293Z,25.50
2019-06-15T11:24:59.761Z,26.67
2019-06-15T11:27:30.709Z,24.47
2019-06-15T11:30:12.543Z,21.57
2019-06-15T11:32:29.321Z,18.57
2019-06-15T11:34:57.779Z,18.60
2019-06-15T11:37:26.235Z,17.30
2019-06-15T11:39:54.687Z,17.37
2019-06-15T11:42:23.272Z,14.33
2019-06-15T11:44:51.740Z,11.43
2019-06-15T11:47:20.175Z,11.03
2019-06-15T11:49:48.734Z,12.00
2019-06-15T11:52:17.188Z,11.23
2019-06-15T11:54:45.751Z,11.27
2019-06-15T11:57:14.248Z,12.30
2019-06-15T11:59:44.854Z,12.60
2019-06-15T12:02:13.526Z,12.87
2019-06-15T12:04:41.999Z,12.30
2019-06-15T12:07:10.622Z,12.00
2019-06-15T12:09:39.306Z,8.77
2019-06-15T12:12:07.770Z,5.57
2019-06-15T12:14:36.403Z,4.13
2019-06-15T12:17:06.039Z,2.77
2019-06-15T12:19:34.827Z,2.90
2019-06-15T12:22:04.454Z,3.00
2019-06-15T12:24:32.927Z,3.43
2019-06-15T12:27:03.003Z,3.57
2019-06-15T12:29:33.044Z,3.03
2019-06-15T12:32:01.672Z,3.20
2019-06-15T12:34:30.200Z,3.63
2019-06-15T12:36:58.920Z,4.10
2019-06-15T12:39:27.596Z,3.93
2019-06-15T12:41:56.056Z,3.97
2019-06-15T12:44:24.567Z,3.10
2019-06-15T12:46:53.437Z,2.07
2019-06-15T12:49:21.880Z,2.30
2019-06-15T12:51:50.376Z,2.30
2019-06-15T12:54:18.792Z,1.67
2019-06-15T12:56:47.562Z,2.23
2019-06-15T12:59:15.942Z,2.07
2019-06-15T13:01:44.331Z,1.90
2019-06-15T13:04:12.873Z,1.90
2019-06-15T13:06:44.865Z,2.20
2019-06-15T13:09:13.419Z,2.00
2019-06-15T13:11:41.918Z,1.60
2019-06-15T13:14:10.371Z,1.90
2019-06-15T13:16:39.973Z,1.70
2019-06-15T13:19:08.567Z,1.70
2019-06-15T13:21:37.059Z,1.50
2019-06-15T13:24:05.536Z,1.50
2019-06-15T13:26:34.821Z,1.60
2019-06-15T13:29:03.336Z,1.80
2019-06-15T13:31:31.859Z,1.70
2019-06-15T13:34:00.475Z,1.97
2019-06-15T13:36:30.160Z,2.03
2019-06-15T13:38:58.633Z,1.57
2019-06-15T13:41:27.184Z,2.50
2019-06-15T13:43:55.659Z,2.93
2019-06-15T13:46:24.555Z,2.60
2019-06-15T13:48:52.992Z,2.37
2019-06-15T13:51:21.519Z,2.47
2019-06-15T13:53:50.015Z,1.90
2019-06-15T13:56:18.543Z,2.20
2019-06-15T13:58:47.062Z,1.83
2019-06-15T14:01:15.602Z,2.57
2019-06-15T14:03:43.998Z,1.80
2019-06-15T14:06:12.586Z,2.40
2019-06-15T14:08:41.147Z,5.60
2019-06-15T14:11:11.645Z,2.50
2019-06-15T14:13:40.239Z,2.87
2019-06-15T14:16:08.660Z,2.27
2019-06-15T14:18:37.094Z,2.60
2019-06-15T14:21:05.539Z,2.63
2019-06-15T14:23:34.727Z,2.17
2019-06-15T14:26:03.232Z,2.37
2019-06-15T14:28:31.648Z,2.40
2019-06-15T14:31:00.650Z,2.80
2019-06-15T14:33:29.093Z,2.60
2019-06-15T14:36:00.639Z,2.70
2019-06-15T14:38:29.083Z,2.63
2019-06-15T14:40:59.556Z,2.77
2019-06-15T14:43:28.098Z,2.57
2019-06-15T14:45:59.771Z,2.60
2019-06-15T14:48:27.055Z,3.57
2019-06-15T14:50:55.527Z,3.03
2019-06-15T14:53:24.235Z,2.70
2019-06-15T14:55:56.466Z,3.20
2019-06-15T14:58:26.392Z,2.73
2019-06-15T15:00:57.091Z,3.50
2019-06-15T15:03:26.327Z,3.27
2019-06-15T15:05:55.013Z,4.13
2019-06-15T15:08:26.219Z,4.47
2019-06-15T15:10:56.271Z,3.70
2019-06-15T15:13:26.469Z,3.50
2019-06-15T15:15:56.962Z,3.87
2019-06-15T15:18:27.047Z,4.63
2019-06-15T15:20:56.886Z,4.00
2019-06-15T15:23:25.525Z,4.00
2019-06-15T15:25:54.130Z,3.93
2019-06-15T15:28:22.707Z,3.90
2019-06-15T15:30:51.442Z,4.60
2019-06-15T15:33:19.943Z,3.70
2019-06-15T15:35:50.951Z,4.17
2019-06-15T15:38:19.469Z,4.17
2019-06-15T15:40:48.156Z,4.20
2019-06-15T15:43:16.655Z,4.87
2019-06-15T15:45:56.516Z,4.53
2019-06-15T15:48:41.052Z,4.37
2019-06-15T15:51:09.670Z,4.80
2019-06-15T15:53:38.135Z,4.47
2019-06-15T15:56:06.569Z,3.77
2019-06-15T15:58:36.322Z,4.67
2019-06-15T16:01:06.547Z,5.33
2019-06-15T16:03:36.989Z,4.50
2019-06-15T16:06:08.281Z,4.53
2019-06-15T16:08:36.912Z,4.57
2019-06-15T16:11:05.527Z,5.43
2019-06-15T16:13:48.289Z,5.27
2019-06-15T16:16:37.319Z,5.53
2019-06-15T16:19:06.512Z,5.87
2019-06-15T16:21:36.699Z,6.70
2019-06-15T16:24:07.469Z,5.73
2019-06-15T16:26:37.589Z,6.13
2019-06-15T16:29:06.936Z,5.53
2019-06-15T16:31:37.671Z,5.70
2019-06-15T16:34:06.144Z,5.43
2019-06-15T16:36:36.515Z,5.47
2019-06-15T16:39:06.654Z,4.83
2019-06-15T16:41:36.489Z,7.20
2019-06-15T16:44:07.155Z,6.37
2019-06-15T16:46:36.888Z,5.13
2019-06-15T16:49:05.684Z,7.20
2019-06-15T16:51:36.141Z,8.07
2019-06-15T16:54:06.334Z,6.23
2019-06-15T16:56:36.165Z,4.90
2019-06-15T16:59:06.748Z,4.40
2019-06-15T17:01:36.140Z,4.37
2019-06-15T17:04:06.130Z,4.67
2019-06-15T17:06:37.646Z,5.17
2019-06-15T17:09:06.425Z,4.40
2019-06-15T17:11:36.664Z,4.23
2019-06-15T17:14:06.902Z,5.00
2019-06-15T17:16:37.656Z,5.20
2019-06-15T17:19:07.158Z,4.97
2019-06-15T17:21:37.184Z,5.20
2019-06-15T17:24:06.739Z,4.63
2019-06-15T17:26:36.570Z,3.30
2019-06-15T17:29:07.533Z,3.00
2019-06-15T17:31:37.442Z,3.73
2019-06-15T17:34:07.264Z,3.03
2019-06-15T17:36:36.774Z,3.30
2019-06-15T17:39:06.194Z,3.57
2019-06-15T17:41:36.632Z,4.10
2019-06-15T17:44:06.065Z,3.80
2019-06-15T17:46:34.704Z,4.37
2019-06-15T17:49:03.200Z,4.10
2019-06-15T17:51:31.852Z,4.23
2019-06-15T17:54:00.263Z,3.80
2019-06-15T17:56:29.133Z,4.00
2019-06-15T17:58:57.724Z,4.20
2019-06-15T18:01:26.659Z,4.33
2019-06-15T18:03:58.230Z,4.10
2019-06-15T18:06:26.780Z,4.73
2019-06-15T18:08:55.564Z,4.23
2019-06-15T18:11:29.864Z,4.50
2019-06-15T18:13:58.335Z,4.53
2019-06-15T18:16:30.337Z,5.00
2019-06-15T18:18:57.031Z,5.27
2019-06-15T18:21:26.906Z,5.00
2019-06-15T18:23:57.265Z,4.83
2019-06-15T18:26:26.844Z,5.07
2019-06-15T18:28:55.422Z,4.63
2019-06-15T18:31:24.119Z,4.57
2019-06-15T18:34:08.352Z,4.80
2019-06-15T18:36:22.860Z,4.97
2019-06-15T18:38:51.313Z,5.10
2019-06-15T18:41:19.759Z,5.10
2019-06-15T18:43:48.121Z,4.90
2019-06-15T18:46:16.707Z,5.13
2019-06-15T18:48:47.098Z,4.73
2019-06-15T18:51:16.529Z,5.20
2019-06-15T18:53:46.539Z,6.17
2019-06-15T18:56:16.293Z,4.77
2019-06-15T18:58:47.500Z,4.80
2019-06-15T19:01:16.390Z,5.13
2019-06-15T19:03:46.725Z,4.87
2019-06-15T19:06:16.828Z,4.93
2019-06-15T19:08:46.912Z,5.17
2019-06-15T19:11:16.491Z,5.20
2019-06-15T19:13:46.602Z,5.30
2019-06-15T19:16:16.653Z,4.70
2019-06-15T19:18:46.273Z,5.20
2019-06-15T19:21:16.879Z,4.70
2019-06-15T19:23:46.929Z,5.17
2019-06-15T19:26:16.434Z,4.53
2019-06-15T19:28:45.984Z,4.73
2019-06-15T19:31:14.729Z,4.70
2019-06-15T19:33:43.237Z,5.37
2019-06-15T19:36:11.606Z,5.70
2019-06-15T19:38:40.085Z,4.77
2019-06-15T19:41:08.539Z,4.80
2019-06-15T19:43:36.939Z,5.43
2019-06-15T19:46:06.840Z,5.27
2019-06-15T19:48:36.861Z,4.60
2019-06-15T19:51:05.767Z,5.20
2019-06-15T19:53:36.374Z,5.23
2019-06-15T19:56:06.653Z,5.37
2019-06-15T19:58:34.559Z,5.53
2019-06-15T20:01:03.282Z,6.00
2019-06-15T20:03:31.687Z,5.70
2019-06-15T20:06:00.123Z,5.70
2019-06-15T20:08:28.610Z,5.80
2019-06-15T20:10:57.310Z,5.57
2019-06-15T20:13:25.762Z,5.80
2019-06-15T20:15:54.174Z,5.60
2019-06-15T20:18:22.691Z,5.40
2019-06-15T20:20:51.067Z,5.80
2019-06-15T20:23:19.448Z,5.37
2019-06-15T20:25:47.856Z,6.33
2019-06-15T20:28:16.481Z,5.63
2019-06-15T20:30:46.159Z,5.73
2019-06-15T20:33:16.629Z,5.90
2019-06-15T20:35:47.076Z,5.83
2019-06-15T20:38:16.055Z,5.77
2019-06-15T20:40:47.074Z,6.33
2019-06-15T20:43:17.108Z,5.43
2019-06-15T20:45:46.898Z,6.30
2019-06-15T20:48:15.388Z,6.80
2019-06-15T20:50:43.836Z,6.07
2019-06-15T20:53:12.282Z,6.80
2019-06-15T20:55:40.672Z,5.83
2019-06-15T20:58:09.254Z,6.03
2019-06-15T21:00:37.686Z,6.50
2019-06-15T21:03:06.797Z,6.77
2019-06-15T21:05:40.991Z,7.03
2019-06-15T21:08:06.953Z,6.17
2019-06-15T21:10:37.329Z,6.10
2019-06-15T21:13:05.711Z,6.70
2019-06-15T21:15:36.868Z,6.63
2019-06-15T21:18:06.734Z,6.57
2019-06-15T21:20:36.616Z,6.83
2019-06-15T21:23:06.639Z,6.83
2019-06-15T21:25:35.247Z,6.30
2019-06-15T21:28:06.470Z,6.90
2019-06-15T21:30:36.628Z,6.60
2019-06-15T21:33:06.819Z,6.80
2019-06-15T21:35:48.173Z,8.03
2019-06-15T21:38:06.520Z,7.07
2019-06-15T21:40:36.801Z,7.07
2019-06-15T21:43:06.818Z,6.53
2019-06-15T21:45:36.832Z,7.40
2019-06-15T21:48:06.714Z,7.47
2019-06-15T21:50:37.537Z,7.27
2019-06-15T21:53:06.828Z,7.87
2019-06-15T21:55:38.759Z,7.90
2019-06-15T21:58:07.788Z,7.60
2019-06-15T22:00:47.555Z,7.27
2019-06-15T22:03:17.404Z,7.70
2019-06-15T22:05:59.781Z,7.80
2019-06-15T22:08:17.532Z,8.10
2019-06-15T22:10:45.995Z,7.53
2019-06-15T22:13:16.026Z,7.97
2019-06-15T22:15:46.613Z,7.60
2019-06-15T22:18:16.416Z,7.47
2019-06-15T22:20:47.003Z,7.67
2019-06-15T22:23:17.240Z,8.07
2019-06-15T22:25:48.759Z,7.87
2019-06-15T22:28:18.483Z,8.90
2019-06-15T22:30:46.970Z,9.77
2019-06-15T22:33:16.638Z,9.07
2019-06-15T22:35:47.405Z,9.20
2019-06-15T22:38:18.723Z,9.27
2019-06-15T22:40:47.150Z,9.27
2019-06-15T22:43:16.721Z,9.47
2019-06-15T22:45:49.773Z,9.67
2019-06-15T22:48:16.493Z,9.53
2019-06-15T22:50:46.791Z,9.37
2019-06-15T22:53:16.475Z,7.97
2019-06-15T22:55:46.270Z,9.50
2019-06-15T22:58:17.791Z,9.43
2019-06-15T23:00:46.980Z,8.83
2019-06-15T23:03:16.879Z,9.03
2019-06-15T23:05:46.307Z,9.57
2019-06-15T23:08:16.306Z,9.33
2019-06-15T23:10:46.889Z,10.07
2019-06-15T23:13:16.035Z,10.13
2019-06-15T23:15:47.086Z,10.00
2019-06-15T23:18:16.959Z,9.67
2019-06-15T23:20:46.195Z,9.70
2019-06-15T23:23:16.184Z,9.70
2019-06-15T23:25:47.009Z,8.90
2019-06-15T23:28:16.614Z,9.43
2019-06-15T23:30:47.275Z,10.47
2019-06-15T23:33:17.294Z,9.53
2019-06-15T23:35:51.015Z,10.20
2019-06-15T23:38:19.390Z,9.70
2019-06-15T23:40:47.838Z,8.40
2019-06-15T23:43:16.687Z,10.00
2019-06-15T23:45:46.822Z,8.70
2019-06-15T23:48:16.109Z,10.13
2019-06-15T23:50:46.378Z,9.33
2019-06-15T23:53:16.925Z,9.23
2019-06-15T23:55:47.019Z,9.63
2019-06-15T23:58:17.342Z,10.50
